Date,TemperatureHighF,TemperatureAvgF,TemperatureLowF,DewpointHighF,DewpointAvgF,DewpointLowF,HumidityHigh,HumidityAvg,HumidityLow,PressureMaxIn,PressureMinIn,WindSpeedMaxMPH,WindSpeedAvgMPH,GustSpeedMaxMPH,PrecipitationSumIn
2013-1-2,22,19,16,17,15,13,90,84,71,30.33,30.17,9,5,19,0.00
2013-1-3,28,22,17,19,16,11,87,79,66,30.36,30.28,10,6,26,0.00
2013-1-4,23,22,20,20,18,17,90,87,82,30.34,30.25,18,10,33,0.00
2013-1-5,38,28,20,22,19,17,90,71,44,30.50,30.27,14,5,23,0.03
2013-1-6,32,30,28,28,25,22,96,82,70,30.27,30.12,10,5,20,0.00
2013-1-7,33,26,22,26,23,17,97,89,57,30.55,30.27,8,4,19,0.01
2013-1-8,43,35,29,28,23,13,88,61,40,30.51,30.42,11,4,21,0.00
2013-1-9,47,40,30,42,36,24,97,83,64,30.50,30.33,14,8,26,0.01
2013-1-10,49,39,32,33,29,24,90,69,39,30.67,30.48,9,3,19,0.00
2013-1-11,52,44,38,50,40,29,98,85,65,30.48,30.14,9,4,19,0.10
2013-1-12,60,54,50,53,51,48,95,88,76,30.20,30.10,8,4,19,0.00
2013-1-13,62,57,50,53,50,45,93,78,63,30.10,29.95,9,3,19,0.00
2013-1-14,59,47,38,53,45,37,98,94,82,30.22,29.97,9,4,19,0.08
2013-1-15,32,30,28,31,29,28,99,99,98,30.41,30.19,3,0,5,0.01
2013-1-17,29,28,25,27,26,23,96,92,83,30.24,30.14,7,2,14,0.00
2013-1-18,25,21,16,23,17,12,90,85,80,30.51,30.23,11,6,21,0.00
2013-1-21,30,21,8,16,11,3,89,67,34,30.10,29.95,12,7,19,0.00
2013-1-22,8,4,-1,5,-3,-5,86,73,56,30.41,30.05,10,6,25,0.00
2013-1-23,12,6,1,9,0,-4,88,75,57,30.46,30.24,9,4,20,0.00
2013-1-24,14,9,4,9,4,-2,89,80,61,30.67,30.20,5,2,19,0.00
2013-1-25,11,7,3,4,2,-2,85,77,71,30.66,30.39,7,3,19,0.00
2013-1-28,48,46,42,47,45,41,98,95,88,30.36,30.14,12,8,22,0.33
2013-1-29,63,52,47,53,49,44,99,89,69,30.18,29.96,12,4,19,0.06
2013-1-30,64,54,46,56,50,44,97,86,70,29.96,29.28,12,5,20,0.72
2013-1-31,45,23,16,44,21,12,97,91,83,29.93,29.23,14,9,33,0.09
2013-2-1,18,9,3,17,6,0,94,88,81,30.47,29.90,14,7,27,0.00
2013-2-2,24,14,3,21,10,0,91,84,61,30.47,30.13,8,4,19,0.00
2013-2-3,24,19,12,20,17,10,93,90,81,30.13,29.91,12,5,25,0.00
2013-2-4,18,13,12,11,10,9,91,88,72,30.16,30.06,16,11,24,0.00
2013-2-5,32,29,28,30,28,27,97,96,92,30.01,29.93,10,6,25,0.00
2013-2-6,30,25,18,29,24,17,98,96,92,30.43,30.00,10,4,25,0.00
2013-2-7,33,28,22,30,26,21,96,92,87,30.46,30.20,8,4,25,0.00
2013-2-8,37,28,19,36,27,18,99,96,93,30.20,29.91,15,6,25,0.01
2013-2-9,27,20,17,18,16,11,95,84,58,30.53,30.12,12,6,25,0.00
2013-2-10,43,31,20,29,19,10,90,61,39,30.52,30.19,8,4,25,0.01
2013-2-11,53,44,32,45,34,22,95,71,34,30.19,29.83,12,7,25,0.05
2013-2-12,43,34,29,28,23,20,79,64,43,30.07,29.92,17,9,39,0.00
2013-2-13,37,31,27,29,26,18,97,81,50,29.90,29.71,6,2,29,0.00
2013-2-14,37,30,22,29,25,20,96,81,61,30.11,29.88,11,5,29,0.02
2013-2-15,38,32,26,31,28,24,92,86,74,30.11,30.04,8,4,29,0.01
2013-2-16,26,20,13,24,17,10,92,86,74,30.07,29.98,5,2,29,0.00
2013-2-17,15,11,8,12,8,5,91,88,83,30.36,29.99,10,5,29,0.00
2013-2-18,43,26,8,30,15,4,84,65,40,30.51,30.19,9,4,29,0.06
2013-2-19,40,33,21,35,27,18,93,79,52,30.18,29.76,12,6,20,0.09
2013-2-20,20,16,11,18,12,7,93,86,75,30.29,29.90,15,10,29,0.00
2013-2-21,22,16,10,16,11,7,89,82,70,30.49,30.26,9,5,19,0.00
2013-2-22,29,25,21,28,22,14,98,90,70,30.47,30.20,8,5,15,0.00
2013-2-23,49,38,29,41,35,28,99,89,62,30.21,29.89,4,1,14,0.02
2013-2-24,34,27,19,33,23,15,95,84,66,30.22,29.89,11,4,23,0.00
2013-2-25,36,27,20,23,19,16,89,72,53,30.33,30.21,7,2,14,0.00
2013-2-26,31,28,25,30,24,18,98,85,69,30.26,29.76,8,5,17,0.00
2013-2-27,30,30,30,30,30,30,98,98,98,29.76,29.72,1,0,14,0.00
2013-2-28,28,26,25,26,24,23,95,92,88,29.88,29.73,9,6,19,0.00
2013-3-1,26,24,20,25,22,19,97,94,89,30.04,29.88,5,2,15,0.00
2013-3-2,22,20,17,19,17,15,95,90,82,30.03,29.97,6,3,15,0.00
2013-3-3,22,18,15,17,15,12,93,88,76,30.09,30.00,12,6,18,0.00
2013-3-4,28,20,13,18,13,9,90,76,61,30.22,30.08,9,6,20,0.00
2013-3-5,42,32,22,28,19,13,96,61,37,30.22,29.77,7,3,15,0.06
2013-3-6,30,27,24,29,26,23,97,95,91,30.21,29.75,7,3,15,0.01
2013-3-7,28,27,26,26,26,25,96,95,91,30.29,30.19,6,3,15,0.00
2013-3-8,28,25,22,25,23,20,94,91,88,30.53,30.39,8,4,11,0.00
2013-3-9,47,34,18,30,22,16,97,68,31,30.54,30.39,5,2,11,0.32
2013-3-10,54,45,36,32,28,23,74,53,38,30.39,30.18,8,4,15,0.00
2013-3-11,48,45,44,45,36,29,94,69,52,30.18,29.88,8,6,18,0.00
2013-3-12,48,35,29,46,33,24,98,92,83,30.07,29.82,11,5,18,0.09
2013-3-13,30,26,19,27,22,16,95,85,62,30.18,30.01,11,5,22,0.01
2013-3-14,30,24,16,19,16,13,92,72,59,30.29,30.18,11,7,27,0.01
2013-3-15,43,33,24,33,24,15,76,69,62,30.26,29.94,12,7,20,0.00
2013-3-16,52,42,36,47,40,33,98,91,76,29.94,29.71,9,5,18,0.15
2013-3-17,36,30,26,35,29,24,98,96,90,30.29,29.93,6,2,18,0.00
2013-3-18,32,27,24,32,26,23,99,97,94,30.29,29.96,9,5,18,0.00
2013-3-19,42,35,27,42,24,8,100,69,30,30.03,29.85,16,9,26,0.15
2013-3-20,35,27,21,25,15,10,93,61,41,30.05,29.89,12,6,27,0.00
2013-3-21,21,16,13,19,11,8,91,82,66,30.06,29.87,9,4,19,0.00
2013-3-22,33,23,16,18,14,10,87,71,53,30.16,30.02,10,5,19,0.00
2013-3-23,40,30,22,21,18,15,79,62,41,30.15,30.08,6,3,18,0.00
2013-3-24,30,26,24,24,21,18,96,83,69,30.09,29.66,7,3,18,0.00
2013-3-25,30,26,24,27,24,23,97,92,82,29.83,29.60,10,4,18,0.04
2013-3-26,26,26,26,25,24,24,94,94,93,29.86,29.83,8,6,13,0.00
2013-3-28,32,31,30,27,26,25,84,82,80,30.39,30.31,6,4,12,0.00
2013-3-29,41,35,30,28,25,22,85,69,52,30.39,30.29,6,4,14,0.03
2013-3-30,46,37,27,31,24,20,79,61,39,30.34,30.18,5,1,8,0.00
2013-3-31,45,40,37,43,35,24,97,82,55,30.18,29.82,9,4,17,0.24
2013-4-1,42,35,27,38,31,16,96,84,59,30.05,29.82,11,5,23,0.10
2013-4-2,33,27,22,17,13,9,71,58,40,30.30,30.05,9,5,17,0.01
2013-4-3,36,28,21,16,14,11,72,57,37,30.50,30.29,9,4,14,0.00
2013-4-4,41,31,18,28,17,9,91,59,39,30.48,30.15,7,2,11,0.00
2013-4-5,51,41,32,34,28,22,88,63,38,30.17,30.00,7,4,13,0.00
2013-4-6,52,38,25,22,15,5,72,41,22,30.36,30.17,6,3,10,0.00
2013-4-7,64,53,43,42,35,22,67,51,41,30.26,30.03,10,4,17,0.00
2013-4-8,63,54,48,44,42,39,76,66,51,30.13,30.07,5,2,8,0.00
2013-4-9,75,68,64,51,49,47,62,52,41,30.03,29.99,6,3,15,0.00
2013-4-10,78,68,58,56,52,47,79,56,38,30.01,29.87,12,6,24,0.00
2013-4-11,75,66,51,54,52,49,91,61,43,29.92,29.68,8,3,15,0.00
2013-4-12,63,56,40,56,48,32,97,75,46,29.81,29.57,12,5,23,0.95
2013-4-13,55,44,35,35,30,21,85,60,29,30.07,29.81,11,6,22,0.00
2013-4-14,63,48,32,38,33,29,91,59,36,30.23,30.07,7,3,12,0.00
2013-4-15,54,49,46,48,44,38,96,84,60,30.27,30.16,9,5,16,0.03
2013-4-16,74,61,49,55,51,48,97,74,44,30.29,30.14,8,4,16,0.32
2013-4-17,68,60,55,58,55,52,96,83,64,30.23,30.15,8,2,10,0.01
2013-4-18,71,61,54,61,56,53,99,84,63,30.20,29.94,9,5,16,0.00
2013-4-19,67,54,37,58,50,31,96,84,66,29.93,29.59,11,7,24,0.75
2013-4-20,44,36,29,31,25,20,83,66,42,30.47,29.83,11,6,28,0.00
2013-4-21,45,35,25,26,23,20,86,62,37,30.66,30.47,4,1,9,0.00
2013-4-22,39,34,32,27,24,22,72,66,59,30.62,30.57,5,2,9,0.00
2013-4-24,72,66,57,54,50,46,82,57,41,30.03,29.82,11,6,22,0.02
2013-4-25,53,46,37,32,27,18,74,49,27,30.44,30.30,7,4,19,0.00
2013-4-26,60,45,33,36,28,20,92,56,23,30.54,30.43,4,1,19,0.00
2013-4-27,64,51,37,40,36,32,94,61,30,30.49,30.29,5,3,19,0.00
2013-4-28,52,47,45,47,44,40,99,88,65,30.30,30.10,9,5,19,0.15
2013-4-29,54,49,44,52,48,44,99,97,92,30.14,30.08,7,2,19,0.11
2013-4-30,54,48,46,51,48,45,100,99,87,30.25,30.13,3,1,8,0.02
2013-5-2,64,56,44,43,38,30,81,53,34,30.44,30.34,6,3,14,0.00
2013-5-3,61,52,44,44,41,37,85,68,51,30.37,30.28,9,4,15,0.00
2013-5-4,59,47,36,44,37,29,94,70,51,30.33,30.21,7,3,14,0.00
2013-5-5,60,49,40,40,35,29,81,61,32,30.26,30.15,7,3,11,0.00
2013-5-6,50,45,40,50,43,38,100,95,78,30.19,30.11,4,2,11,0.07
2013-5-7,52,50,48,52,50,48,100,100,99,30.11,29.99,6,2,10,2.01
2013-5-8,57,50,46,52,48,46,100,93,73,30.07,29.97,4,1,10,0.48
2013-5-9,66,55,48,54,50,47,97,84,54,30.12,29.99,8,4,15,0.06
2013-5-10,73,60,55,56,53,49,94,77,50,30.11,29.89,10,3,21,0.37
2013-5-11,61,56,48,56,52,45,96,89,77,29.89,29.82,9,5,15,0.25
2013-5-12,48,42,37,45,32,24,96,70,49,30.12,29.84,9,5,21,0.06
2013-5-13,43,37,32,34,28,22,87,72,50,30.29,30.11,9,4,18,0.01
2013-5-14,56,42,29,40,32,25,86,69,38,30.32,30.10,5,2,18,0.01
2013-5-15,80,69,50,57,51,39,81,56,37,30.10,29.83,11,7,21,0.00
2013-5-16,69,61,55,59,54,48,95,78,48,30.03,29.81,11,6,21,0.23
2013-5-17,64,56,54,56,54,52,96,92,73,30.17,30.03,7,4,19,0.00
2013-5-20,75,68,61,66,63,60,95,84,67,30.14,30.02,4,2,6,0.07
2013-5-21,79,69,60,65,61,57,97,77,49,30.04,29.89,6,3,10,0.01
2013-5-22,79,67,59,62,58,53,97,72,45,29.95,29.87,8,3,14,0.10
2013-5-23,74,63,56,60,56,53,92,80,49,29.90,29.81,10,4,17,0.01
2013-5-24,56,41,33,53,38,28,98,89,68,30.31,29.82,7,4,17,0.08
2013-5-25,53,41,30,38,32,27,91,74,53,30.40,30.31,8,4,19,0.00
2013-5-26,60,48,36,36,30,22,78,54,29,30.37,30.30,7,3,14,0.00
2013-5-27,61,51,39,48,41,34,96,71,48,30.37,30.26,4,2,8,0.03
2013-5-28,75,65,55,60,55,48,87,71,48,30.26,30.10,9,4,19,0.00
2013-5-29,78,68,59,61,57,54,89,68,50,30.19,30.11,10,4,19,0.00
2013-5-30,80,69,58,66,59,56,94,73,47,30.26,30.16,5,1,19,0.01
2013-5-31,81,75,65,64,59,53,87,59,43,30.18,30.04,6,2,11,0.00
2013-6-1,81,72,64,67,61,58,88,70,48,30.06,29.92,6,3,11,0.00
2013-6-2,69,65,60,62,60,57,94,83,74,29.92,29.84,9,4,20,0.01
2013-6-3,67,60,52,61,56,49,97,88,73,30.07,29.90,3,1,11,0.00
2013-6-4,69,56,45,48,44,35,97,66,30,30.22,30.06,5,1,11,0.01
2013-6-5,71,60,50,59,53,45,89,77,62,30.21,30.05,6,3,11,0.00
2013-6-6,61,58,56,58,57,55,99,95,88,30.05,29.89,6,4,11,0.26
2013-6-7,63,60,55,62,59,54,99,98,96,29.89,29.74,4,1,9,0.17
2013-6-8,70,59,53,59,55,52,98,85,61,30.19,29.86,6,2,14,0.00
2013-6-9,70,64,56,64,60,55,97,89,68,30.23,30.12,4,2,8,0.00
2013-6-10,70,63,59,67,61,57,99,93,76,30.12,29.84,8,3,11,0.23
2013-6-11,66,64,62,61,60,60,92,88,84,29.97,29.91,8,5,16,0.01
2013-6-12,75,68,62,67,64,60,93,87,70,29.97,29.83,5,2,17,0.00
2013-6-13,70,61,54,67,60,53,98,94,88,29.87,29.57,9,4,17,1.69
2013-6-14,65,57,50,57,53,49,97,85,68,30.12,29.76,4,2,17,0.01
2013-6-15,55,53,51,53,51,50,98,94,87,30.16,30.10,4,2,17,0.00
2013-6-17,75,69,62,65,62,61,95,79,63,30.03,29.97,4,3,10,0.00
2013-6-18,69,64,57,64,60,56,96,88,68,29.97,29.86,2,0,10,0.18
2013-6-19,63,60,57,60,58,57,98,95,88,30.08,29.96,2,0,5,0.00
2013-6-24,79,74,67,67,64,61,88,72,57,30.19,30.09,4,2,9,0.00
2013-6-25,80,74,66,67,65,62,93,74,55,30.10,30.01,6,4,14,0.00
2013-6-26,73,69,64,67,65,62,94,87,77,29.94,29.88,6,2,11,0.06
2013-6-27,68,65,63,66,63,61,98,94,86,29.88,29.70,6,2,19,0.28
2013-6-28,72,64,59,67,62,56,98,93,76,29.71,29.58,6,3,21,0.08
2013-6-29,74,64,57,61,58,56,96,81,58,29.77,29.60,5,2,21,0.02
2013-6-30,76,67,60,66,62,59,98,85,61,29.89,29.75,4,1,21,0.01
2013-7-1,74,67,61,68,64,59,98,90,77,29.99,29.85,5,2,11,0.01
2013-7-2,72,68,63,67,64,62,98,90,81,30.14,29.99,5,2,9,0.00
2013-7-3,77,69,63,69,65,62,97,86,72,30.24,30.13,5,2,10,0.00
2013-7-4,80,71,65,71,65,63,95,82,64,30.26,30.17,6,3,11,0.00
2013-7-5,80,71,66,71,65,62,95,82,63,30.23,30.14,5,2,8,0.00
2013-7-6,67,66,64,65,64,62,95,93,91,30.22,30.19,2,1,6,0.00
2013-7-8,74,68,61,66,62,57,95,81,70,30.19,30.13,5,2,15,0.07
2013-7-9,77,69,65,69,64,62,96,86,71,30.17,30.06,6,3,18,0.04
2013-7-10,80,71,63,69,65,60,96,82,64,30.09,29.89,5,3,18,0.12
2013-7-11,72,65,58,65,62,58,98,90,77,30.03,29.89,5,1,11,0.52
2013-7-12,66,59,56,61,59,56,99,98,84,30.17,30.00,1,0,11,0.47
2013-7-13,73,65,60,67,63,59,100,93,77,30.31,30.15,5,1,7,0.01
2013-7-14,78,70,64,68,65,63,99,86,64,30.37,30.29,5,3,11,0.04
2013-7-15,83,73,63,68,64,61,94,77,52,30.38,30.29,4,1,6,0.00
2013-7-16,84,73,66,73,68,63,96,85,65,30.34,30.25,3,1,8,0.13
2013-7-17,84,73,67,73,69,66,99,88,65,30.32,30.18,1,0,6,0.00
2013-7-18,85,75,68,73,69,66,95,83,60,30.22,30.08,4,0,9,0.00
2013-7-19,84,74,68,73,69,66,97,85,63,30.09,29.91,5,2,9,0.00
2013-7-20,80,72,65,69,66,60,95,82,65,29.96,29.86,6,3,12,0.00
2013-7-21,76,68,63,69,64,60,97,88,72,30.01,29.94,4,1,9,0.40
2013-7-22,76,68,62,70,66,62,99,93,78,30.00,29.81,5,1,9,0.17
2013-7-23,76,67,60,67,64,59,98,89,71,29.84,29.75,6,2,13,0.35
2013-7-24,68,62,52,63,58,50,99,89,75,30.02,29.76,5,1,11,0.02
2013-7-25,70,59,51,60,53,50,98,83,60,30.16,30.00,2,0,6,0.00
2013-7-26,73,62,52,61,56,51,99,82,63,30.17,30.09,2,0,6,0.00
2013-7-27,68,64,60,63,61,59,96,90,79,30.09,29.93,5,2,17,0.06
2013-7-28,71,64,56,61,58,52,97,81,63,30.07,29.91,5,2,12,0.14
2013-7-29,67,58,50,55,51,48,94,79,59,30.28,30.08,4,2,13,0.00
2013-7-30,69,59,53,58,54,51,93,86,66,30.31,30.23,3,1,13,0.00
2013-7-31,70,62,56,62,59,54,98,89,69,30.23,30.03,4,1,13,0.00
2013-8-1,72,64,61,65,61,59,98,91,73,30.03,29.91,5,2,13,0.03
2013-8-2,72,64,58,61,58,55,97,82,58,30.05,29.96,5,2,14,0.01
2013-8-3,68,62,57,63,59,56,98,90,79,30.04,29.99,5,2,10,0.20
2013-8-4,68,60,54,58,55,51,98,84,55,30.14,30.03,3,1,8,0.01
2013-8-5,69,59,48,57,52,48,98,79,53,30.19,30.09,2,0,6,0.00
2013-8-6,72,64,55,63,58,51,95,81,67,30.10,30.05,3,1,7,0.00
2013-8-7,77,68,63,70,65,62,98,92,77,30.07,29.99,5,2,9,0.47
2013-8-8,75,68,65,70,66,63,98,93,80,30.05,29.99,3,1,7,0.25
2013-8-9,70,67,66,68,66,65,98,96,88,30.04,29.95,7,2,14,0.57
2013-8-10,77,67,60,67,63,57,98,87,61,30.15,30.04,2,0,8,0.02
2013-8-11,79,68,61,67,63,58,94,84,62,30.15,30.06,2,0,7,0.00
2013-8-12,78,68,62,66,63,60,97,85,59,30.09,29.95,4,1,8,0.00
2013-8-13,73,64,57,66,62,55,98,92,71,29.95,29.83,6,2,13,0.77
2013-8-14,60,54,48,55,49,44,95,83,69,30.23,29.93,6,2,14,0.00
2013-8-15,66,55,44,53,49,44,99,81,59,30.28,30.19,3,0,14,0.01
2013-8-16,70,60,52,56,53,49,97,78,53,30.25,30.19,3,1,7,0.00
2013-8-17,65,59,52,57,54,50,97,84,69,30.32,30.24,4,1,7,0.00
2013-8-18,64,58,54,62,57,53,99,95,86,30.30,30.23,5,1,7,0.12
2013-8-19,72,64,60,66,62,59,98,92,76,30.24,30.13,3,1,8,0.06
2013-8-20,74,65,57,65,61,57,99,86,60,30.26,30.16,2,0,6,0.01
2013-8-21,76,66,60,69,63,58,98,93,77,30.25,30.14,4,1,6,0.39
2013-8-22,74,66,61,66,62,57,97,88,71,30.16,30.04,6,3,16,0.01
2013-8-23,66,61,55,64,59,54,99,94,74,30.21,30.03,4,0,14,0.55
2013-8-24,71,62,55,64,58,55,100,87,63,30.40,30.21,3,0,5,0.00
2013-8-25,71,63,56,61,57,53,95,80,64,30.45,30.32,3,1,6,0.00
2013-8-26,75,65,56,64,58,53,92,80,62,30.35,30.11,6,2,13,0.00
2013-8-27,71,67,64,67,65,61,97,92,86,30.11,30.00,7,4,18,0.05
2013-8-28,73,68,64,69,66,63,98,95,84,30.02,29.86,6,3,18,0.74
2013-8-29,76,69,63,68,65,62,100,89,67,30.08,30.01,2,0,13,0.01
2013-8-30,74,64,62,65,62,60,98,93,62,30.08,30.05,3,2,8,0.00
2013-9-4,73,69,63,57,54,46,77,58,38,30.18,30.14,1,1,10,0.00
2013-9-5,69,62,52,60,56,50,94,81,63,30.22,30.13,6,2,13,0.00
2013-9-6,67,55,44,54,48,42,93,79,58,30.31,30.22,2,0,13,0.00
2013-9-7,73,61,52,53,50,38,97,71,30,30.22,30.03,5,2,8,0.00
2013-9-8,76,66,59,66,60,52,97,81,66,30.09,29.98,6,2,13,0.00
2013-9-9,71,64,57,65,61,55,98,90,77,30.17,30.09,5,2,13,0.00
2013-9-10,82,72,65,71,67,63,94,84,66,30.23,30.15,5,2,14,0.00
2013-9-11,78,72,67,72,68,65,95,88,76,30.20,30.11,4,2,11,0.08
2013-9-12,76,67,60,68,64,59,97,89,72,30.02,29.82,7,3,15,0.00
2013-9-13,60,54,44,59,52,43,98,91,70,30.04,29.80,4,1,13,0.16
2013-9-14,58,47,42,48,43,41,97,86,65,30.28,30.04,3,0,9,0.00
2013-9-15,68,56,42,57,50,41,98,83,61,30.29,30.17,5,2,9,0.01
2013-9-16,59,55,50,56,52,48,99,92,77,30.33,30.11,3,1,10,0.08
2013-9-17,57,50,45,50,47,41,98,90,72,30.47,30.34,4,1,8,0.00
2013-9-18,62,53,45,54,49,42,96,86,71,30.39,30.24,5,2,8,0.00
2013-9-19,68,60,52,61,57,50,98,91,74,30.25,30.11,3,0,7,0.00
2013-9-20,71,64,56,64,61,55,99,92,78,30.13,29.94,3,1,7,0.02
2013-9-21,66,60,51,62,58,50,98,95,87,29.94,29.72,5,2,15,0.34
2013-9-22,58,51,43,51,48,42,98,90,69,30.06,29.82,3,0,9,0.01
2013-9-23,58,46,38,48,42,38,99,89,66,30.21,30.06,1,0,7,0.00
2013-9-24,67,52,38,56,48,37,98,87,63,30.20,30.06,1,0,8,0.01
2013-9-25,66,55,47,56,50,44,97,82,59,30.08,29.96,3,0,8,0.01
2013-9-26,68,57,48,51,48,45,97,75,44,30.15,30.01,0,0,4,0.00
2013-9-27,65,55,49,52,50,48,98,83,59,30.29,30.15,1,0,5,0.01
2013-9-28,59,53,47,53,49,45,98,89,72,30.35,30.27,4,1,6,0.01
2013-9-29,64,54,47,53,48,44,96,81,63,30.27,30.13,5,1,8,0.00
2013-9-30,64,57,49,56,53,48,98,87,70,30.14,30.08,2,0,5,0.00
2013-10-1,67,59,54,58,55,51,94,86,68,30.17,30.10,4,1,10,0.00
2013-10-2,71,62,56,60,57,55,96,85,61,30.19,30.13,7,2,15,0.00
2013-10-3,73,64,56,62,59,55,99,85,67,30.19,30.11,2,0,6,0.00
2013-10-4,75,66,60,63,60,58,94,83,63,30.18,30.10,4,2,8,0.00
2013-10-5,75,67,61,64,61,58,94,83,64,30.16,30.05,6,2,11,0.00
2013-10-6,78,69,62,62,59,56,93,73,49,30.07,29.87,8,4,14,0.00
2013-10-7,64,52,43,60,49,40,97,89,78,30.18,29.76,8,4,17,0.44
2013-10-8,58,48,41,45,42,39,98,79,56,30.40,30.17,8,1,11,0.00
2013-10-9,53,47,43,45,42,37,89,81,70,30.42,30.33,4,1,8,0.00
2013-10-10,53,49,43,52,48,40,99,95,84,30.33,30.16,2,0,8,0.17
2013-10-11,54,51,48,54,51,48,100,100,99,30.16,30.09,1,0,5,0.17
2013-10-12,56,54,52,56,54,52,100,100,100,30.26,30.11,1,0,4,0.27
2013-10-13,53,52,51,53,52,51,100,100,100,30.38,30.25,2,0,3,0.14
2013-10-14,55,53,51,55,53,51,100,100,100,30.38,30.30,4,0,5,0.01
2013-10-15,61,54,49,54,51,49,100,92,71,30.31,30.12,5,2,10,0.01
2013-10-16,66,58,52,56,50,35,96,74,46,30.11,29.97,6,1,10,0.00
2013-10-17,60,56,43,58,54,42,98,95,88,29.97,29.74,10,4,21,0.14
2013-10-18,55,45,38,42,39,36,95,79,52,30.13,29.92,7,3,21,0.00
2013-10-19,56,45,38,49,42,34,97,88,66,30.10,29.86,8,3,21,0.05
2013-10-20,51,41,34,36,33,31,93,75,48,30.21,30.00,7,3,21,0.00
2013-10-21,63,50,40,42,37,33,93,64,39,30.20,29.99,5,2,21,0.00
2013-10-22,49,43,34,43,37,31,96,80,59,29.99,29.89,8,4,18,0.02
2013-10-23,37,34,30,34,32,29,97,94,85,30.04,29.81,7,2,18,0.18
2013-10-24,32,30,28,30,28,26,97,93,82,30.27,30.03,8,4,13,0.09
2013-10-25,34,30,28,30,27,26,94,89,78,30.47,30.27,8,5,15,0.10
2013-10-26,46,36,27,30,26,22,92,70,41,30.44,30.07,11,5,25,0.01
2013-10-27,47,40,34,36,32,29,92,76,58,30.23,30.07,8,3,15,0.00
2013-10-28,56,45,38,40,36,32,94,71,42,30.37,30.22,5,2,15,0.00
2013-10-29,58,46,37,43,38,28,99,77,33,30.44,30.36,4,1,15,0.01
2013-10-30,56,53,45,54,49,39,94,87,76,30.37,30.22,5,2,11,0.00
2013-10-31,65,58,54,55,53,49,95,84,60,30.22,29.67,8,3,16,0.03
2013-11-1,63,54,47,57,47,42,95,78,53,29.76,29.53,14,6,33,0.23
2013-11-2,48,43,37,42,39,35,93,85,76,30.00,29.70,9,5,18,0.06
2013-11-3,44,36,28,36,30,24,97,80,49,30.53,30.00,6,1,10,0.04
2013-11-4,36,30,23,27,24,20,89,78,68,30.68,30.52,6,2,10,0.00
2013-11-5,44,38,29,41,30,24,91,73,55,30.69,30.52,6,2,10,0.00
2013-11-6,63,53,42,50,46,39,96,78,56,30.52,30.18,5,2,11,0.00
2013-11-7,50,37,30,49,34,24,98,89,75,30.15,29.92,8,4,24,0.17
2013-11-8,37,31,26,27,25,22,90,77,61,30.43,30.15,9,4,24,0.00
2013-11-9,54,41,26,27,21,10,88,50,17,30.42,30.11,10,3,19,0.00
2013-11-10,44,38,31,33,28,22,80,67,41,30.34,30.05,15,7,30,0.00
2013-11-11,53,41,29,30,17,4,86,47,16,30.39,30.10,11,6,19,0.00
2013-11-12,40,25,19,34,22,15,96,87,68,30.56,30.09,8,3,17,0.05
2013-11-13,26,21,18,19,17,15,92,85,70,30.65,30.53,12,5,20,0.01
2013-11-14,46,38,23,20,15,9,73,41,27,30.53,30.34,16,7,34,0.00
2013-11-15,51,43,38,38,20,12,93,42,27,30.36,30.26,13,5,34,0.04
2013-11-16,54,48,40,48,44,38,96,88,74,30.34,30.20,7,2,34,0.01
2013-11-17,61,53,46,55,50,44,96,88,73,30.21,29.71,11,4,34,0.12
2013-11-18,50,43,33,44,33,25,93,68,45,30.04,29.77,13,8,34,0.01
2013-11-19,33,28,22,27,23,20,91,81,72,30.50,30.03,5,2,29,0.00
2013-11-20,37,28,22,22,19,16,90,69,45,30.65,30.50,6,2,12,0.00
2013-11-21,51,39,28,44,33,19,92,81,65,30.61,30.42,5,2,12,0.00
2013-11-22,52,49,37,51,47,37,98,94,84,30.42,30.11,6,3,12,0.18
2013-11-23,37,26,13,37,23,8,98,88,70,30.33,30.15,10,4,17,0.01
2013-11-24,16,11,8,10,6,4,89,80,67,30.68,30.33,6,3,13,0.00
2013-11-25,37,24,9,19,9,1,84,56,22,30.68,30.40,7,2,20,0.00
2013-11-26,43,35,30,41,33,15,99,93,47,30.42,29.74,8,2,16,0.36
2013-11-27,40,24,14,39,22,11,99,95,86,30.17,29.69,12,5,27,0.00
2013-11-28,15,14,14,13,11,10,92,87,84,30.44,30.17,11,6,23,0.00
2013-12-2,45,41,38,36,35,34,90,79,66,30.02,29.92,3,1,8,0.00
2013-12-3,48,42,38,39,37,34,94,83,71,30.03,29.92,3,0,8,0.00
2013-12-4,55,47,40,47,43,37,96,86,73,30.12,30.02,4,2,8,0.00
2013-12-5,64,57,47,55,52,45,96,86,71,30.08,29.93,7,2,13,0.09
2013-12-6,57,37,31,56,36,30,99,98,88,30.23,29.91,7,1,12,1.07
2013-12-7,31,24,18,31,22,16,99,96,92,30.65,30.22,0,0,12,0.01
2013-12-8,28,19,16,28,18,15,98,95,93,30.65,30.37,0,0,12,0.00
2013-12-9,42,34,27,42,33,26,100,96,91,30.37,30.14,13,5,21,0.28
2013-12-10,27,22,18,26,20,13,97,89,79,30.31,30.06,14,6,26,0.00
2013-12-11,28,21,14,18,14,10,88,74,50,30.49,30.30,12,8,21,0.00
2013-12-12,22,18,15,17,14,10,90,84,78,30.42,30.40,10,7,20,0.00
2013-12-16,32,24,21,30,23,19,96,93,90,30.27,30.17,7,2,25,0.00
2013-12-17,34,31,23,33,30,21,97,94,90,30.20,30.02,8,3,25,0.00
2013-12-18,26,22,19,21,19,15,94,87,62,30.33,30.08,10,2,19,0.00
2013-12-19,49,43,26,34,25,11,61,50,36,30.31,30.18,13,8,30,0.02
2013-12-20,54,49,46,49,39,23,92,68,38,30.19,30.03,7,4,30,0.00
2013-12-21,67,58,52,56,51,48,90,80,57,30.06,29.85,9,4,30,0.01
2013-12-22,64,56,53,57,51,46,94,83,72,30.02,29.76,13,6,30,0.30
2013-12-23,53,37,24,48,35,21,97,92,79,30.28,29.93,7,3,30,0.17
2013-12-24,24,18,8,22,14,5,92,86,67,30.58,30.26,9,4,30,0.00
2013-12-25,29,18,7,16,11,4,90,74,47,30.65,30.42,6,1,30,0.00
2013-12-26,31,28,24,24,18,14,91,69,51,30.46,30.31,10,5,30,0.00
2013-12-27,37,30,22,19,16,11,76,59,38,30.53,30.45,8,4,30,0.00
2013-12-28,45,39,32,26,21,18,59,49,35,30.46,30.21,9,6,30,0.00
2013-12-29,46,38,33,41,34,13,99,89,26,30.21,29.68,9,4,30,0.63
2013-12-30,34,26,21,33,24,18,97,93,87,30.25,29.91,9,4,30,0.02
2013-12-31,24,21,18,20,17,14,92,86,78,30.41,30.19,16,9,30,0.00
2014-1-1,44,30,22,26,21,16,84,69,46,30.51,30.19,12,3,30,0.01
2014-1-2,35,29,11,29,23,8,97,79,54,30.19,29.70,6,1,30,0.00